Погода Рибейран-Претуна неделю

Сан-Паулу, Бразилия

19 - 25 июня
  • 19июня
    Сегодня
    +13°
    +30°
    Ясно и безоблачно
    ВремяПогодаТемператураВлажностьДавлениеВетер, м/сВероятность осадков
    00:00Ясно и безоблачно+16°C59 %712 мм1.9 м/с5 %
    03:00Ясно и безоблачно+14°C63 %711 мм1.8 м/с5 %
    06:00Ясно и безоблачно+13°C67 %711 мм1.9 м/с5 %
    09:00Ясно и безоблачно+20°C48 %714 мм2.3 м/с5 %
    12:00Ясно и безоблачно+28°C26 %714 мм4.2 м/с5 %
    15:00Ясно и безоблачно+30°C24 %712 мм3.1 м/с5 %
    18:00Ясно и безоблачно+25°C38 %712 мм1.6 м/с5 %
    21:00Ясно и безоблачно+20°C49 %713 мм1.2 м/с5 %
  • 20июня
    Четверг
    +13°
    +30°
    Ясно и безоблачно
    ВремяПогодаТемператураВлажностьДавлениеВетер, м/сВероятность осадков
    00:00Ясно и безоблачно+17°C59 %713 мм1.8 м/с5 %
    03:00Ясно и безоблачно+15°C65 %712 мм1.9 м/с5 %
    06:00Ясно и безоблачно+14°C70 %712 мм2.3 м/с5 %
    09:00Ясно и безоблачно+20°C52 %714 мм2.5 м/с5 %
    12:00Ясно и безоблачно+29°C31 %715 мм3.0 м/с5 %
    15:00Ясно и безоблачно+30°C27 %713 мм2.8 м/с5 %
    18:00Ясно и безоблачно+26°C39 %713 мм1.5 м/с5 %
    21:00Ясно и безоблачно+21°C42 %713 мм1.4 м/с5 %
  • 21июня
    Пятница
    +15°
    +31°
    Небольшая облачность
    ВремяПогодаТемператураВлажностьДавлениеВетер, м/сВероятность осадков
    00:00Ясно и безоблачно+17°C56 %713 мм1.8 м/с5 %
    03:00Ясно и безоблачно+15°C62 %712 мм1.9 м/с5 %
    06:00Ясно и безоблачно+14°C64 %711 мм2.4 м/с5 %
    09:00Ясно и безоблачно+20°C48 %714 мм3.0 м/с5 %
    12:00Практически безоблачно+29°C32 %714 мм3.8 м/с5 %
    15:00Небольшая облачность+30°C31 %712 мм3.0 м/с5 %
    18:00Небольшая облачность+27°C44 %712 мм1.8 м/с5 %
    21:00Облачно с прояснениями+22°C48 %713 мм1.8 м/с5 %
  • 22июня
    Суббота
    +16°
    +31°
    Облачно с прояснениями
    ВремяПогодаТемператураВлажностьДавлениеВетер, м/сВероятность осадков
    00:00Облачно с прояснениями+19°C54 %712 мм1.6 м/с5 %
    03:00Практически безоблачно+17°C62 %711 мм1.9 м/с5 %
    06:00Практически безоблачно+16°C62 %711 мм2.2 м/с5 %
    09:00Практически безоблачно+21°C53 %713 мм3.0 м/с5 %
    12:00Небольшая облачность+29°C34 %713 мм4.7 м/с5 %
    15:00Облачно с прояснениями+30°C30 %712 мм3.7 м/с5 %
    18:00Облачно с прояснениями+27°C41 %711 мм1.6 м/с5 %
    21:00Облачно с прояснениями+23°C52 %711 мм1.2 м/с5 %
  • 23июня
    Воскресенье
    +16°
    +32°
    Ясно и безоблачно
    ВремяПогодаТемператураВлажностьДавлениеВетер, м/сВероятность осадков
    00:00Облачно с прояснениями+20°C53 %711 мм1.8 м/с5 %
    03:00Ясно и безоблачно+18°C63 %710 мм1.6 м/с5 %
    06:00Ясно и безоблачно+16°C68 %711 мм1.7 м/с5 %
    09:00Ясно и безоблачно+22°C47 %713 мм2.1 м/с5 %
    12:00Ясно и безоблачно+31°C29 %713 мм4.2 м/с5 %
    15:00Ясно и безоблачно+32°C28 %711 мм3.5 м/с5 %
    18:00Ясно и безоблачно+28°C41 %711 мм1.4 м/с5 %
    21:00Ясно и безоблачно+23°C54 %711 мм1.5 м/с5 %
Мы используем cookies
Соглашаюсь